CFG23D EDDF-LHBP
Flight info
| Callsign | CFG23D |
|---|---|
| Flight time | N/A |
| Altitude | 31000 |
| Route | SULUS6S SULUS Z650 VEMUT/N0440F350 DCT PEPIK DCT NIT/N0386F230 M748 ARFOX |
| Aircraft | A20N/M-SDE2E3FGHIRWXY/LB1 |
Departure
| Time | 2026-05-06 11:51 |
|---|---|
| Airport | Frankfurt Main Airport (EDDF) |
Arrival
| Time | N/A |
|---|---|
| Airport | Budapest Liszt Ferenc International Airport (LHBP) |
| Time | Latitude | Longitude | Altitude | Speed | Heading |
|---|---|---|---|---|---|
| 2026-05-06 11:05 | 50.04908 | 8.58868 | 343 ft | 0 kts | 159° |
| 2026-05-06 11:31 | 50.04920 | 8.58861 | 353 ft | 3 kts | 164° |
| 2026-05-06 11:31 | 50.04940 | 8.58855 | 353 ft | 3 kts | 179° |
| 2026-05-06 11:31 | 50.04959 | 8.58858 | 346 ft | 3 kts | 209° |
| 2026-05-06 11:31 | 50.04968 | 8.58867 | 356 ft | 2 kts | 241° |
| 2026-05-06 11:32 | 50.04972 | 8.58880 | 358 ft | 1 kts | 250° |
| 2026-05-06 11:32 | 50.04973 | 8.58882 | 358 ft | 0 kts | 250° |
| 2026-05-06 11:36 | 50.04970 | 8.58871 | 358 ft | 5 kts | 250° |
| 2026-05-06 11:36 | 50.04950 | 8.58781 | 351 ft | 9 kts | 251° |
| 2026-05-06 11:37 | 50.04928 | 8.58712 | 349 ft | 9 kts | 235° |
| 2026-05-06 11:37 | 50.04916 | 8.58695 | 345 ft | 3 kts | 205° |
| 2026-05-06 11:37 | 50.04859 | 8.58702 | 334 ft | 13 kts | 165° |
| 2026-05-06 11:37 | 50.04802 | 8.58735 | 330 ft | 0 kts | 156° |
| 2026-05-06 11:38 | 50.04760 | 8.58756 | 329 ft | 13 kts | 172° |
| 2026-05-06 11:38 | 50.04707 | 8.58694 | 329 ft | 10 kts | 249° |
| 2026-05-06 11:38 | 50.04675 | 8.58566 | 329 ft | 14 kts | 249° |
| 2026-05-06 11:39 | 50.04640 | 8.58417 | 333 ft | 15 kts | 250° |
| 2026-05-06 11:39 | 50.04598 | 8.58264 | 333 ft | 17 kts | 246° |
| 2026-05-06 11:39 | 50.04552 | 8.58075 | 335 ft | 20 kts | 253° |
| 2026-05-06 11:39 | 50.04508 | 8.57886 | 336 ft | 19 kts | 247° |
| 2026-05-06 11:40 | 50.04499 | 8.57851 | 335 ft | 3 kts | 248° |
| 2026-05-06 11:40 | 50.04484 | 8.57792 | 334 ft | 8 kts | 248° |
| 2026-05-06 11:40 | 50.04474 | 8.57747 | 337 ft | 0 kts | 253° |
| 2026-05-06 11:40 | 50.04473 | 8.57745 | 337 ft | 0 kts | 253° |
| 2026-05-06 11:41 | 50.04472 | 8.57738 | 340 ft | 2 kts | 253° |
| 2026-05-06 11:41 | 50.04464 | 8.57697 | 336 ft | 6 kts | 253° |
| 2026-05-06 11:41 | 50.04440 | 8.57582 | 336 ft | 18 kts | 250° |
| 2026-05-06 11:42 | 50.04419 | 8.57493 | 340 ft | 3 kts | 250° |
| 2026-05-06 11:42 | 50.04406 | 8.57433 | 339 ft | 9 kts | 250° |
| 2026-05-06 11:42 | 50.04387 | 8.57351 | 348 ft | 11 kts | 250° |
| 2026-05-06 11:42 | 50.04373 | 8.57291 | 345 ft | 0 kts | 250° |
| 2026-05-06 11:43 | 50.04369 | 8.57274 | 353 ft | 4 kts | 250° |
| 2026-05-06 11:43 | 50.04352 | 8.57202 | 349 ft | 10 kts | 250° |
| 2026-05-06 11:43 | 50.04320 | 8.57075 | 350 ft | 13 kts | 248° |
| 2026-05-06 11:44 | 50.04296 | 8.56982 | 356 ft | 6 kts | 248° |
| 2026-05-06 11:44 | 50.04285 | 8.56890 | 357 ft | 10 kts | 281° |
| 2026-05-06 11:44 | 50.04342 | 8.56822 | 357 ft | 9 kts | 8° |
| 2026-05-06 11:44 | 50.04422 | 8.56824 | 352 ft | 10 kts | 327° |
| 2026-05-06 11:45 | 50.04432 | 8.56764 | 356 ft | 9 kts | 271° |
| 2026-05-06 11:45 | 50.04402 | 8.56631 | 352 ft | 17 kts | 249° |
| 2026-05-06 11:45 | 50.04357 | 8.56434 | 356 ft | 21 kts | 249° |
| 2026-05-06 11:45 | 50.04302 | 8.56198 | 352 ft | 25 kts | 244° |
| 2026-05-06 11:46 | 50.04241 | 8.55948 | 356 ft | 25 kts | 250° |
| 2026-05-06 11:46 | 50.04176 | 8.55690 | 358 ft | 26 kts | 248° |
| 2026-05-06 11:46 | 50.04113 | 8.55421 | 359 ft | 27 kts | 251° |
| 2026-05-06 11:46 | 50.04048 | 8.55148 | 361 ft | 28 kts | 248° |
| 2026-05-06 11:47 | 50.03976 | 8.54862 | 363 ft | 29 kts | 248° |
| 2026-05-06 11:47 | 50.03903 | 8.54551 | 360 ft | 31 kts | 250° |
| 2026-05-06 11:47 | 50.03827 | 8.54298 | 363 ft | 23 kts | 237° |
| 2026-05-06 11:47 | 50.03764 | 8.54076 | 363 ft | 24 kts | 249° |
| 2026-05-06 11:48 | 50.03699 | 8.53825 | 364 ft | 26 kts | 248° |
| 2026-05-06 11:48 | 50.03630 | 8.53545 | 364 ft | 25 kts | 250° |
| 2026-05-06 11:48 | 50.03571 | 8.53282 | 364 ft | 27 kts | 251° |
| 2026-05-06 11:48 | 50.03504 | 8.53007 | 369 ft | 24 kts | 246° |
| 2026-05-06 11:49 | 50.03449 | 8.52800 | 377 ft | 20 kts | 247° |
| 2026-05-06 11:49 | 50.03426 | 8.52719 | 379 ft | 1 kts | 246° |
| 2026-05-06 11:49 | 50.03408 | 8.52659 | 379 ft | 15 kts | 238° |
| 2026-05-06 11:49 | 50.03303 | 8.52597 | 374 ft | 7 kts | 181° |
| 2026-05-06 11:50 | 50.03302 | 8.52597 | 374 ft | 0 kts | 181° |
| 2026-05-06 11:50 | 50.03258 | 8.52595 | 373 ft | 22 kts | 180° |
| 2026-05-06 11:50 | 50.02823 | 8.52594 | 365 ft | 102 kts | 178° |
| 2026-05-06 11:50 | 50.01913 | 8.52605 | 355 ft | 160 kts | 180° |
| 2026-05-06 11:51 | 50.00956 | 8.52629 | 941 ft | 160 kts | 180° |
| 2026-05-06 11:51 | 49.99821 | 8.52667 | 1784 ft | 167 kts | 181° |
| 2026-05-06 11:51 | 49.98660 | 8.52718 | 2612 ft | 172 kts | 181° |
| 2026-05-06 11:51 | 49.97394 | 8.52855 | 3139 ft | 195 kts | 170° |
| 2026-05-06 11:52 | 49.96124 | 8.53896 | 3746 ft | 224 kts | 137° |
| 2026-05-06 11:52 | 49.95260 | 8.56035 | 4652 ft | 241 kts | 120° |
| 2026-05-06 11:52 | 49.94484 | 8.58421 | 5807 ft | 248 kts | 120° |
| 2026-05-06 11:52 | 49.93778 | 8.60869 | 7029 ft | 253 kts | 106° |
| 2026-05-06 11:53 | 49.93643 | 8.63601 | 8417 ft | 261 kts | 92° |
| 2026-05-06 11:53 | 49.93649 | 8.66562 | 9313 ft | 286 kts | 94° |
| 2026-05-06 11:53 | 49.93157 | 8.69613 | 10237 ft | 299 kts | 120° |
| 2026-05-06 11:53 | 49.91851 | 8.72209 | 10980 ft | 317 kts | 141° |
| 2026-05-06 11:54 | 49.90051 | 8.74370 | 11687 ft | 338 kts | 144° |
| 2026-05-06 11:54 | 49.88309 | 8.76896 | 12772 ft | 348 kts | 134° |
| 2026-05-06 11:54 | 49.86876 | 8.79990 | 13927 ft | 357 kts | 124° |
| 2026-05-06 11:54 | 49.85610 | 8.83326 | 15002 ft | 360 kts | 123° |
| 2026-05-06 11:55 | 49.84366 | 8.86705 | 16162 ft | 363 kts | 122° |
| 2026-05-06 11:55 | 49.83686 | 8.88570 | 16731 ft | 366 kts | 122° |
| 2026-05-06 11:55 | 49.82502 | 8.91831 | 17712 ft | 371 kts | 122° |
| 2026-05-06 11:55 | 49.81228 | 8.95344 | 18645 ft | 376 kts | 122° |
| 2026-05-06 11:56 | 49.79931 | 8.98913 | 19464 ft | 384 kts | 122° |
| 2026-05-06 11:56 | 49.78629 | 9.02493 | 20258 ft | 390 kts | 122° |
| 2026-05-06 11:56 | 49.77276 | 9.06229 | 21084 ft | 397 kts | 120° |
| 2026-05-06 11:56 | 49.76153 | 9.10122 | 21917 ft | 405 kts | 112° |
| 2026-05-06 11:57 | 49.75339 | 9.14383 | 22745 ft | 413 kts | 105° |
| 2026-05-06 11:57 | 49.74889 | 9.18751 | 23519 ft | 420 kts | 96° |
| 2026-05-06 11:57 | 49.74805 | 9.23283 | 24236 ft | 425 kts | 91° |
| 2026-05-06 11:57 | 49.74907 | 9.27885 | 24966 ft | 430 kts | 89° |
| 2026-05-06 11:58 | 49.75076 | 9.32533 | 25652 ft | 434 kts | 89° |
| 2026-05-06 11:58 | 49.75256 | 9.37201 | 26334 ft | 438 kts | 89° |
| 2026-05-06 11:58 | 49.75429 | 9.41938 | 26972 ft | 442 kts | 90° |
| 2026-05-06 11:58 | 49.75592 | 9.46718 | 27618 ft | 446 kts | 90° |
| 2026-05-06 11:59 | 49.75747 | 9.51528 | 28230 ft | 450 kts | 90° |
| 2026-05-06 11:59 | 49.75901 | 9.56365 | 28815 ft | 453 kts | 91° |
| 2026-05-06 11:59 | 49.76051 | 9.61253 | 29386 ft | 457 kts | 92° |
| 2026-05-06 11:59 | 49.76197 | 9.66131 | 29930 ft | 460 kts | 92° |
| 2026-05-06 12:00 | 49.76342 | 9.71108 | 30359 ft | 465 kts | 92° |
| 2026-05-06 12:00 | 49.76486 | 9.76123 | 30690 ft | 470 kts | 92° |
| 2026-05-06 12:00 | 49.76774 | 9.86245 | 30785 ft | 470 kts | 92° |
| 2026-05-06 12:01 | 49.77051 | 9.96343 | 30784 ft | 472 kts | 92° |
| 2026-05-06 12:01 | 49.77321 | 10.06560 | 30783 ft | 478 kts | 93° |
| 2026-05-06 12:02 | 49.77583 | 10.16813 | 30783 ft | 477 kts | 93° |
| 2026-05-06 12:02 | 49.77837 | 10.27081 | 30782 ft | 476 kts | 93° |
| 2026-05-06 12:03 | 49.78080 | 10.37307 | 30781 ft | 476 kts | 93° |
| 2026-05-06 12:03 | 49.78314 | 10.47541 | 30767 ft | 476 kts | 94° |
| 2026-05-06 12:04 | 49.78540 | 10.57838 | 30784 ft | 479 kts | 94° |
| 2026-05-06 12:04 | 49.78759 | 10.68151 | 30792 ft | 479 kts | 94° |
| 2026-05-06 12:05 | 49.78968 | 10.78468 | 30788 ft | 479 kts | 94° |
| 2026-05-06 12:05 | 49.79166 | 10.88716 | 30785 ft | 479 kts | 94° |
| 2026-05-06 12:06 | 49.79353 | 10.99008 | 30778 ft | 479 kts | 94° |
| 2026-05-06 12:06 | 49.79533 | 11.09315 | 30790 ft | 480 kts | 94° |
| 2026-05-06 12:07 | 49.79706 | 11.19660 | 30794 ft | 480 kts | 94° |
| 2026-05-06 12:07 | 49.79870 | 11.29987 | 30790 ft | 480 kts | 94° |
| 2026-05-06 12:08 | 49.80023 | 11.40318 | 30775 ft | 481 kts | 94° |
| 2026-05-06 12:08 | 49.80167 | 11.50689 | 30778 ft | 482 kts | 94° |
| 2026-05-06 12:09 | 49.80304 | 11.61052 | 30782 ft | 482 kts | 94° |
| 2026-05-06 12:09 | 49.80432 | 11.71452 | 30782 ft | 483 kts | 94° |
| 2026-05-06 12:10 | 49.80551 | 11.81840 | 30784 ft | 483 kts | 94° |
| 2026-05-06 12:10 | 49.80658 | 11.92281 | 30785 ft | 487 kts | 94° |
| 2026-05-06 12:11 | 49.80743 | 12.00968 | 30777 ft | 486 kts | 94° |
| 2026-05-06 12:11 | 49.80836 | 12.11448 | 30777 ft | 486 kts | 94° |
| 2026-05-06 12:12 | 49.80920 | 12.21924 | 30782 ft | 486 kts | 94° |
| 2026-05-06 12:12 | 49.80993 | 12.32407 | 30761 ft | 488 kts | 94° |
| 2026-05-06 12:13 | 49.80932 | 12.42956 | 30788 ft | 486 kts | 100° |
| 2026-05-06 12:13 | 49.79697 | 12.53114 | 30788 ft | 476 kts | 113° |
| 2026-05-06 12:14 | 49.77715 | 12.62880 | 30787 ft | 476 kts | 113° |
| 2026-05-06 12:14 | 49.75770 | 12.72620 | 30787 ft | 476 kts | 113° |
| 2026-05-06 12:15 | 49.73805 | 12.82408 | 30779 ft | 476 kts | 114° |
| 2026-05-06 12:15 | 49.71823 | 12.92198 | 30795 ft | 477 kts | 114° |
| 2026-05-06 12:16 | 49.69828 | 13.01995 | 30799 ft | 478 kts | 114° |
| 2026-05-06 12:16 | 49.67823 | 13.11796 | 30810 ft | 478 kts | 114° |
| 2026-05-06 12:17 | 49.65811 | 13.21582 | 30815 ft | 478 kts | 114° |
| 2026-05-06 12:17 | 49.63797 | 13.31329 | 30809 ft | 477 kts | 114° |
| 2026-05-06 12:18 | 49.61765 | 13.41117 | 30812 ft | 477 kts | 114° |
| 2026-05-06 12:18 | 49.59750 | 13.50778 | 30808 ft | 477 kts | 114° |
| 2026-05-06 12:19 | 49.57701 | 13.60555 | 30784 ft | 476 kts | 114° |
| 2026-05-06 12:19 | 49.55671 | 13.70194 | 30795 ft | 476 kts | 114° |
| 2026-05-06 12:20 | 49.53617 | 13.79892 | 30798 ft | 477 kts | 114° |
| 2026-05-06 12:20 | 49.51880 | 13.88065 | 30802 ft | 477 kts | 114° |
| 2026-05-06 12:21 | 49.49874 | 13.97460 | 30804 ft | 477 kts | 115° |
| 2026-05-06 12:21 | 49.47793 | 14.07162 | 30790 ft | 477 kts | 114° |
| 2026-05-06 12:22 | 49.45703 | 14.16854 | 30798 ft | 478 kts | 115° |
| 2026-05-06 12:22 | 49.43601 | 14.26557 | 30804 ft | 478 kts | 115° |
| 2026-05-06 12:23 | 49.41504 | 14.36199 | 30807 ft | 479 kts | 115° |
| 2026-05-06 12:23 | 49.39371 | 14.45952 | 30803 ft | 478 kts | 115° |
| 2026-05-06 12:24 | 49.37258 | 14.55574 | 30807 ft | 479 kts | 115° |
| 2026-05-06 12:24 | 49.35109 | 14.65311 | 30808 ft | 479 kts | 115° |
| 2026-05-06 12:25 | 49.32977 | 14.74925 | 30811 ft | 479 kts | 115° |
| 2026-05-06 12:25 | 49.30823 | 14.84598 | 30787 ft | 479 kts | 115° |
| 2026-05-06 12:26 | 49.28661 | 14.94261 | 30805 ft | 479 kts | 115° |
| 2026-05-06 12:26 | 49.26493 | 15.03904 | 30803 ft | 479 kts | 115° |
| 2026-05-06 12:27 | 49.24429 | 15.13046 | 30803 ft | 479 kts | 115° |
| 2026-05-06 12:27 | 49.22245 | 15.22678 | 30801 ft | 479 kts | 115° |
| 2026-05-06 12:28 | 49.20059 | 15.32272 | 30810 ft | 477 kts | 115° |
| 2026-05-06 12:28 | 49.17877 | 15.41806 | 30808 ft | 477 kts | 115° |
| 2026-05-06 12:29 | 49.15669 | 15.51413 | 30806 ft | 476 kts | 115° |